Time;durP1;ratioP1;P1;durP2;ratioP2;P2;SDS_P1;SDS_P2;PMS_P1;PMS_P2;Temp;Humidity;BMP_temperature;BMP_pressure;BME280_temperature;BME280_humidity;BME280_pressure;Samples;Min_cycle;Max_cycle;Signal;HPM_P1;HPM_P2
2022/11/23 05:22:34;;;;;;;2.15;0.75;;;;;;;3.91;100.00;98868.88;5068775;28;20168;-68
2022/11/23 05:25:00;;;;;;;0.90;0.40;;;;;;;3.94;100.00;98876.44;5067510;28;20063;-68
2022/11/23 05:27:27;;;;;;;4.03;0.75;;;;;;;3.98;100.00;98877.75;5067630;28;20154;-68
2022/11/23 05:29:53;;;;;;;1.73;0.75;;;;;;;4.00;100.00;98873.13;5067550;28;20102;-69
2022/11/23 05:32:19;;;;;;;1.30;0.82;;;;;;;3.97;100.00;98873.44;5067244;28;20041;-69
2022/11/23 05:34:44;;;;;;;0.82;0.82;;;;;;;3.98;100.00;98877.75;5068646;28;20481;-69
2022/11/23 05:37:12;;;;;;;;;;;;;;;3.95;100.00;98878.06;5099099;22;20064;-69
2022/11/23 05:39:47;;;;;;;0.63;0.57;;;;;;;3.95;100.00;98877.25;5087589;28;19973;-70
2022/11/23 05:42:13;;;;;;;0.98;0.85;;;;;;;3.90;100.00;98877.72;5087259;28;20040;-70
2022/11/23 05:44:41;;;;;;;1.58;0.88;;;;;;;3.90;100.00;98871.63;5105788;28;20033;-70
2022/11/23 05:47:12;;;;;;;1.95;0.80;;;;;;;3.89;100.00;98870.81;5091920;28;20040;-69
2022/11/23 05:49:38;;;;;;;0.80;0.80;;;;;;;3.85;100.00;98882.69;5094226;28;20445;-67
2022/11/23 05:52:04;;;;;;;1.42;0.93;;;;;;;3.79;100.00;98884.16;5090207;28;20054;-69
2022/11/23 05:54:30;;;;;;;0.80;0.57;;;;;;;3.74;100.00;98883.00;5087832;28;20051;-69
2022/11/23 05:57:01;;;;;;;2.45;1.00;;;;;;;3.72;100.00;98890.25;5087503;28;20405;-70
2022/11/23 05:59:52;;;;;;;1.70;0.80;;;;;;;3.67;100.00;98882.00;5086028;28;20043;-68
2022/11/23 06:02:22;;;;;;;2.58;1.02;;;;;;;3.66;100.00;98889.06;5086872;28;20132;-69
2022/11/23 06:04:52;;;;;;;1.48;1.00;;;;;;;3.62;100.00;98892.19;5087033;28;20098;-70
2022/11/23 06:07:24;;;;;;;1.83;0.73;;;;;;;3.59;100.00;98890.72;5087215;28;20040;-70
2022/11/23 06:09:58;;;;;;;2.38;0.73;;;;;;;3.51;100.00;98890.66;5087000;28;20390;-70
2022/11/23 06:12:24;;;;;;;2.88;1.00;;;;;;;3.49;100.00;98892.66;5086656;28;20060;-70
2022/11/23 06:14:50;;;;;;;0.80;0.80;;;;;;;3.41;100.00;98890.81;5086796;28;20417;-69
2022/11/23 06:17:19;;;;;;;1.95;0.80;;;;;;;3.35;100.00;98883.56;5086828;28;20039;-69
2022/11/23 06:19:47;;;;;;;3.38;0.80;;;;;;;3.33;100.00;98890.81;5086738;28;20127;-69
2022/11/23 06:22:14;;;;;;;1.55;0.88;;;;;;;3.29;100.00;98889.47;5086499;28;20581;-68
2022/11/23 06:24:59;;;;;;;2.80;1.15;;;;;;;3.25;100.00;98885.50;5087225;28;20055;-69
2022/11/23 06:27:30;;;;;;;0.60;0.60;;;;;;;3.17;100.00;98885.47;5088029;28;20079;-69
2022/11/23 06:29:57;;;;;;;1.38;1.10;;;;;;;3.18;100.00;98890.56;5069822;28;20039;-69
2022/11/23 06:32:25;;;;;;;1.75;1.15;;;;;;;3.09;100.00;98894.16;5081297;28;20031;-68
2022/11/23 06:34:50;;;;;;;4.72;2.33;;;;;;;3.09;100.00;98890.72;5074306;28;20036;-70
2022/11/23 06:37:16;;;;;;;2.35;1.25;;;;;;;3.06;100.00;98891.00;5072941;28;20029;-70
2022/11/23 06:39:47;;;;;;;1.25;0.75;;;;;;;3.00;100.00;98892.50;5072854;28;20173;-69
2022/11/23 06:42:14;;;;;;;1.90;1.15;;;;;;;3.01;100.00;98893.31;5072489;28;20447;-69
2022/11/23 06:44:39;;;;;;;1.02;1.00;;;;;;;2.99;100.00;98894.28;5074093;28;20131;-69
2022/11/23 06:47:06;;;;;;;0.88;0.82;;;;;;;2.98;100.00;98897.88;5072773;28;20037;-68
2022/11/23 06:49:31;;;;;;;1.75;1.10;;;;;;;2.99;100.00;98902.16;5074064;28;20059;-68
2022/11/23 06:52:14;;;;;;;3.35;1.23;;;;;;;2.94;100.00;98898.38;5072304;28;20170;-69
2022/11/23 06:54:39;;;;;;;1.20;0.95;;;;;;;2.91;100.00;98906.56;5072635;28;20514;-70
2022/11/23 06:57:08;;;;;;;5.05;1.42;;;;;;;2.91;100.00;98907.38;5072490;28;20043;-70
2022/11/23 06:59:34;;;;;;;2.20;1.63;;;;;;;2.88;100.00;98912.16;5055855;28;20570;-68
2022/11/23 07:01:59;;;;;;;2.67;1.42;;;;;;;2.86;100.00;98911.47;5073493;28;20111;-69
2022/11/23 07:04:30;;;;;;;1.73;1.13;;;;;;;2.97;100.00;98912.03;5072504;28;20056;-69
2022/11/23 07:06:55;;;;;;;1.02;0.85;;;;;;;2.90;100.00;98918.06;5073650;28;20048;-70
2022/11/23 07:09:37;;;;;;;1.15;1.05;;;;;;;2.86;100.00;98920.19;5072446;28;20420;-69
2022/11/23 07:12:28;;;;;;;1.33;1.13;;;;;;;2.81;100.00;98930.38;5071070;28;20170;-68
2022/11/23 07:14:53;;;;;;;1.17;1.10;;;;;;;2.81;100.00;98925.09;5073614;28;20059;-69
2022/11/23 07:17:19;;;;;;;5.50;1.25;;;;;;;2.80;100.00;98920.81;5072576;28;20044;-69
2022/11/23 07:19:45;;;;;;;2.17;1.10;;;;;;;2.77;100.00;98923.75;5072587;28;20041;-69
2022/11/23 07:22:10;;;;;;;1.25;1.02;;;;;;;2.76;100.00;98926.56;5071908;28;20123;-70
2022/11/23 07:24:37;;;;;;;4.90;1.02;;;;;;;2.80;100.00;98920.81;5072605;28;20056;-69
2022/11/23 07:27:05;;;;;;;2.13;1.35;;;;;;;2.62;100.00;98909.53;5072163;28;20095;-69
2022/11/23 07:29:30;;;;;;;4.93;1.77;;;;;;;2.66;100.00;98927.47;5055319;28;20048;-68
2022/11/23 07:31:56;;;;;;;0.80;0.80;;;;;;;2.55;100.00;98924.28;5072842;28;20078;-69
2022/11/23 07:34:27;;;;;;;1.98;1.15;;;;;;;2.60;100.00;98929.88;5071809;28;20059;-69
2022/11/23 07:36:53;;;;;;;4.05;1.40;;;;;;;2.65;100.00;98933.72;5071928;28;20064;-67
2022/11/23 07:39:19;;;;;;;1.73;1.30;;;;;;;2.68;100.00;98932.59;5071749;28;20064;-67
2022/11/23 07:41:47;;;;;;;1.23;1.05;;;;;;;2.71;100.00;98934.91;5055244;28;20374;-67
2022/11/23 07:44:19;;;;;;;3.35;1.15;;;;;;;2.74;100.00;98929.34;5071289;28;20098;-68
2022/11/23 07:46:45;;;;;;;2.40;1.05;;;;;;;2.82;100.00;98934.66;5072875;28;20036;-68
2022/11/23 07:49:10;;;;;;;1.85;1.17;;;;;;;2.87;100.00;98932.38;5072848;28;20489;-68
2022/11/23 07:51:36;;;;;;;3.42;1.38;;;;;;;2.94;100.00;98937.84;5072470;28;20078;-67
2022/11/23 07:54:01;;;;;;;2.35;1.40;;;;;;;2.98;100.00;98931.25;5072776;28;20123;-67
2022/11/23 07:56:27;;;;;;;6.32;1.65;;;;;;;3.03;100.00;98929.00;5071386;28;20093;-68
2022/11/23 07:58:52;;;;;;;2.67;1.17;;;;;;;3.08;100.00;98933.78;5072738;28;20140;-69
2022/11/23 08:01:18;;;;;;;3.22;2.17;;;;;;;3.14;100.00;98934.00;5072164;28;20040;-69
2022/11/23 08:03:45;;;;;;;2.75;1.42;;;;;;;3.18;100.00;98930.03;5072777;28;20035;-68
2022/11/23 08:06:12;;;;;;;2.83;1.63;;;;;;;3.29;100.00;98931.59;5072492;28;20061;-68
2022/11/23 08:08:38;;;;;;;2.60;1.75;;;;;;;3.37;100.00;98939.50;5071317;28;20036;-67
2022/11/23 08:11:05;;;;;;;9.98;2.50;;;;;;;3.50;100.00;98939.06;5072008;28;20104;-68
2022/11/23 08:13:31;;;;;;;6.10;2.42;;;;;;;3.58;100.00;98931.16;5072467;28;20505;-68
2022/11/23 08:15:56;;;;;;;2.97;1.50;;;;;;;3.72;100.00;98925.31;5072213;28;20063;-68
2022/11/23 08:18:25;;;;;;;9.18;2.47;;;;;;;3.80;100.00;98908.69;5072308;28;20041;-68
2022/11/23 08:20:51;;;;;;;4.70;2.28;;;;;;;4.08;100.00;98915.28;5071963;28;20037;-69
2022/11/23 08:23:17;;;;;;;6.75;2.55;;;;;;;4.31;100.00;98923.38;5072236;28;20040;-69
2022/11/23 08:25:42;;;;;;;5.72;1.90;;;;;;;4.47;100.00;98917.25;5072029;28;20082;-68
2022/11/23 08:28:08;;;;;;;3.20;1.50;;;;;;;4.65;100.00;98914.44;5070733;28;20109;-68
2022/11/23 08:30:34;;;;;;;4.18;1.25;;;;;;;4.81;100.00;98922.31;5071696;28;20040;-69
2022/11/23 08:33:04;;;;;;;3.05;1.58;;;;;;;5.02;100.00;98919.16;5072032;28;20032;-69
2022/11/23 08:35:35;;;;;;;7.63;2.08;;;;;;;5.22;100.00;98921.41;5071862;28;20123;-69
2022/11/23 08:38:01;;;;;;;4.32;1.90;;;;;;;5.43;100.00;98922.44;5071957;28;20041;-69
2022/11/23 08:40:27;;;;;;;3.08;1.23;;;;;;;5.65;100.00;98920.03;5071567;28;20059;-68
2022/11/23 08:42:53;;;;;;;2.20;1.58;;;;;;;5.82;100.00;98918.94;5071784;28;20037;-69
2022/11/23 08:45:19;;;;;;;2.28;1.70;;;;;;;6.05;100.00;98924.25;5071738;28;20039;-69
2022/11/23 08:47:44;;;;;;;6.72;2.00;;;;;;;6.31;100.00;98920.41;5071753;28;20398;-69
2022/11/23 08:50:10;;;;;;;6.05;1.83;;;;;;;6.64;100.00;98919.13;5053767;28;20093;-69
2022/11/23 08:52:35;;;;;;;1.88;1.50;;;;;;;7.01;99.02;98926.19;5071464;28;20095;-69
2022/11/23 08:55:00;;;;;;;2.45;1.55;;;;;;;7.43;94.00;98929.19;5071360;28;20040;-69
2022/11/23 08:57:26;;;;;;;2.25;1.35;;;;;;;7.75;89.39;98918.16;5053629;28;20044;-68
2022/11/23 08:59:52;;;;;;;2.33;1.25;;;;;;;8.02;90.21;98915.78;5071535;28;20041;-70
2022/11/23 09:02:17;;;;;;;6.65;1.70;;;;;;;8.28;89.33;98913.41;5071410;28;20483;-69
2022/11/23 09:04:43;;;;;;;2.80;1.30;;;;;;;8.52;88.69;98919.31;5071697;28;20040;-69
2022/11/23 09:07:08;;;;;;;2.47;1.00;;;;;;;8.89;85.16;98919.00;5071358;28;20029;-69
2022/11/23 09:09:33;;;;;;;2.35;1.50;;;;;;;9.24;83.99;98925.13;5071562;28;20401;-69
2022/11/23 09:11:59;;;;;;;3.35;1.40;;;;;;;9.43;81.39;98912.13;5071051;28;20485;-69
2022/11/23 09:14:26;;;;;;;1.75;1.17;;;;;;;9.61;81.33;98915.06;5071463;28;20119;-69
2022/11/23 09:16:52;;;;;;;1.73;1.17;;;;;;;9.87;78.93;98911.66;5071420;28;20109;-69
2022/11/23 09:19:17;;;;;;;5.63;1.35;;;;;;;10.21;78.19;98916.03;5071541;28;20036;-69
2022/11/23 09:21:43;;;;;;;1.95;1.08;;;;;;;10.42;75.34;98914.22;5071179;28;20047;-70
2022/11/23 09:24:10;;;;;;;3.28;0.90;;;;;;;10.51;71.88;98919.16;5071347;28;20041;-69
2022/11/23 09:26:36;;;;;;;1.95;0.85;;;;;;;10.60;73.78;98919.75;5071479;28;20489;-68
2022/11/23 09:29:04;;;;;;;1.58;0.82;;;;;;;10.88;71.75;98922.19;5071321;28;20084;-68
2022/11/23 09:31:29;;;;;;;2.83;1.02;;;;;;;11.15;70.47;98928.31;5070992;28;20032;-69
2022/11/23 09:33:54;;;;;;;1.77;1.08;;;;;;;11.38;69.65;98933.16;5071271;28;20037;-69
2022/11/23 09:36:21;;;;;;;1.33;0.93;;;;;;;11.55;67.25;98931.66;5071268;28;20135;-69
2022/11/23 09:38:48;;;;;;;3.55;1.00;;;;;;;11.78;65.15;98933.81;5071336;28;20032;-69
2022/11/23 09:41:33;;;;;;;1.63;1.00;;;;;;;12.00;65.88;98923.69;5070866;28;20036;-69
2022/11/23 09:44:18;;;;;;;1.15;0.77;;;;;;;12.11;64.71;98928.31;5071402;28;20032;-69
2022/11/23 09:47:01;;;;;;;4.05;1.15;;;;;;;12.67;61.19;98927.50;5071135;28;20059;-69
2022/11/23 09:49:36;;;;;;;3.05;0.90;;;;;;;12.82;59.74;98926.34;5071270;28;20085;-68
2022/11/23 09:52:02;;;;;;;1.60;0.77;;;;;;;12.69;58.83;98921.94;5070740;28;20123;-68
2022/11/23 09:54:35;;;;;;;5.88;1.13;;;;;;;13.27;56.73;98922.44;5071050;28;20128;-69
2022/11/23 09:57:03;;;;;;;1.52;0.80;;;;;;;12.95;57.99;98926.22;5071171;28;20033;-68
2022/11/23 09:59:28;;;;;;;2.25;0.93;;;;;;;13.54;55.92;98916.78;5071037;28;20124;-69
2022/11/23 10:01:55;;;;;;;3.40;0.70;;;;;;;13.77;54.86;98911.56;5070687;28;20115;-69
2022/11/23 10:04:21;;;;;;;2.20;1.23;;;;;;;13.84;52.76;98912.28;5071325;28;20054;-68
2022/11/23 10:07:18;;;;;;;3.60;1.10;;;;;;;14.22;52.28;98913.81;5070953;28;20093;-69
2022/11/23 10:09:43;;;;;;;2.90;0.98;;;;;;;15.16;50.87;98908.53;5074804;28;20033;-69
2022/11/23 10:12:42;;;;;;;1.48;0.98;;;;;;;15.80;50.13;98911.22;5056457;28;20135;-69
2022/11/23 10:15:14;;;;;;;2.20;0.75;;;;;;;16.59;46.96;98900.53;5074597;28;20085;-69
2022/11/23 10:18:03;;;;;;;1.98;1.15;;;;;;;17.33;43.93;98907.25;5074888;28;20389;-69
2022/11/23 10:20:54;;;;;;;2.47;0.90;;;;;;;17.86;42.76;98910.34;5074282;28;20024;-69
2022/11/23 10:23:41;;;;;;;1.38;0.63;;;;;;;18.28;42.46;98907.00;5074541;28;20097;-69
2022/11/23 10:26:15;;;;;;;2.80;1.48;;;;;;;17.92;42.28;98906.63;5074403;28;20520;-69
2022/11/23 10:28:40;;;;;;;2.60;1.20;;;;;;;17.82;41.55;98904.66;5074476;28;20123;-69
2022/11/23 10:31:16;;;;;;;3.10;1.10;;;;;;;18.28;41.24;98907.81;5073755;28;20127;-69
2022/11/23 10:33:57;;;;;;;3.35;1.10;;;;;;;18.55;39.48;98901.56;5074355;28;20456;-69
2022/11/23 10:36:22;;;;;;;1.58;1.23;;;;;;;19.34;38.95;98900.75;5074136;28;20049;-69
2022/11/23 10:38:58;;;;;;;1.90;0.82;;;;;;;19.92;37.82;98899.66;5074151;28;20037;-69
2022/11/23 10:41:24;;;;;;;2.58;1.00;;;;;;;19.34;38.20;98895.34;5073836;28;20029;-68
2022/11/23 10:44:04;;;;;;;1.42;0.70;;;;;;;20.57;36.95;98894.63;5074095;28;20029;-69
2022/11/23 10:46:39;;;;;;;1.90;0.73;;;;;;;20.89;35.87;98885.38;5074087;28;20602;-69
2022/11/23 10:49:23;;;;;;;1.65;0.65;;;;;;;20.91;35.78;98885.91;5074089;28;20044;-69
2022/11/23 10:51:56;;;;;;;2.42;0.90;;;;;;;21.02;35.05;98876.69;5073578;28;20040;-69
2022/11/23 10:54:33;;;;;;;2.00;0.98;;;;;;;20.56;34.20;98874.06;5074003;28;20060;-69
2022/11/23 10:57:01;;;;;;;3.35;0.75;;;;;;;21.05;34.58;98874.25;5073896;28;20032;-69
2022/11/23 10:59:37;;;;;;;2.55;0.77;;;;;;;21.17;35.02;98871.22;5073739;28;20561;-69
2022/11/23 11:02:20;;;;;;;0.82;0.57;;;;;;;21.47;33.28;98861.41;5073580;28;20028;-69
2022/11/23 11:04:48;;;;;;;0.68;0.65;;;;;;;20.18;34.70;98854.56;5073722;28;20103;-69
2022/11/23 11:07:27;;;;;;;1.20;0.57;;;;;;;20.79;34.31;98862.66;5055928;28;20055;-69
2022/11/23 11:10:00;;;;;;;3.50;0.82;;;;;;;20.82;35.82;98859.41;5055648;28;20044;-68
2022/11/23 11:12:28;;;;;;;2.17;0.98;;;;;;;21.08;34.73;98832.28;5073581;28;20119;-68
2022/11/23 11:15:15;;;;;;;1.45;0.70;;;;;;;21.31;33.86;98852.53;5073788;28;20139;-69
2022/11/23 11:17:40;;;;;;;3.83;1.20;;;;;;;21.82;32.90;98850.38;5073648;28;20036;-68
2022/11/23 11:20:24;;;;;;;0.93;0.65;;;;;;;22.45;33.24;98836.94;5073346;28;20139;-70
2022/11/23 11:22:50;;;;;;;2.95;0.90;;;;;;;22.30;32.10;98831.66;5073333;28;20474;-71
2022/11/23 11:25:35;;;;;;;1.60;0.63;;;;;;;22.82;31.40;98827.38;5073346;28;20029;-70
2022/11/23 11:28:17;;;;;;;3.90;0.77;;;;;;;22.83;31.76;98823.53;5073917;28;20389;-70
2022/11/23 11:30:56;;;;;;;1.20;0.60;;;;;;;22.40;31.91;98823.41;5073299;28;20059;-70
2022/11/23 11:33:32;;;;;;;1.08;0.73;;;;;;;20.35;31.50;98816.44;5073267;28;20111;-69
2022/11/23 11:36:00;;;;;;;1.50;0.82;;;;;;;21.43;31.04;98814.28;5073372;28;20040;-70
2022/11/23 11:38:32;;;;;;;1.23;0.60;;;;;;;22.28;31.70;98812.13;5073207;28;20492;-70
2022/11/23 11:41:01;;;;;;;2.38;0.70;;;;;;;21.25;32.24;98808.38;5072799;28;20032;-70
2022/11/23 11:43:43;;;;;;;1.27;0.60;;;;;;;22.19;31.74;98794.84;5073049;28;20106;-70
2022/11/23 11:46:23;;;;;;;0.85;0.40;;;;;;;22.18;31.70;98804.09;5072909;28;20032;-70
2022/11/23 11:48:58;;;;;;;2.03;0.55;;;;;;;21.81;30.79;98799.97;5072892;28;20094;-70
2022/11/23 11:51:32;;;;;;;2.22;0.75;;;;;;;21.21;32.43;98793.00;5072419;28;20041;-70
2022/11/23 11:54:43;;;;;;;1.58;0.60;;;;;;;21.52;32.63;98790.97;5072957;28;20044;-70
2022/11/23 11:57:25;;;;;;;3.42;0.70;;;;;;;21.35;33.08;98797.53;5035308;28;20489;-70
2022/11/23 11:59:56;;;;;;;0.90;0.60;;;;;;;19.86;35.50;98789.94;5072892;28;20074;-70
2022/11/23 12:02:24;;;;;;;2.88;0.68;;;;;;;21.40;33.36;98791.31;5072438;28;20067;-70
2022/11/23 12:04:59;;;;;;;1.92;0.68;;;;;;;21.35;34.06;98794.03;5072445;28;20041;-70
2022/11/23 12:08:05;;;;;;;1.98;0.68;;;;;;;21.09;32.56;98791.41;5072447;28;20040;-70
2022/11/23 12:10:40;;;;;;;2.58;0.73;;;;;;;19.82;35.98;98790.72;5071895;28;20478;-70
2022/11/23 12:13:12;;;;;;;2.42;0.93;;;;;;;20.07;35.14;98793.44;5054398;28;20043;-70
2022/11/23 12:15:43;;;;;;;2.72;0.73;;;;;;;19.82;36.21;98786.13;5072213;28;20132;-70
2022/11/23 12:18:18;;;;;;;1.70;0.60;;;;;;;19.55;36.79;98786.34;5072330;28;20117;-70
2022/11/23 12:20:46;;;;;;;4.38;1.02;;;;;;;19.34;37.06;98788.19;5071851;28;20111;-70
2022/11/23 12:23:36;;;;;;;2.22;0.90;;;;;;;18.89;37.40;98788.81;5072192;28;20037;-71
2022/11/23 12:26:20;;;;;;;2.03;0.73;;;;;;;18.70;37.20;98781.16;5072030;28;20032;-70
2022/11/23 12:29:18;;;;;;;1.60;0.50;;;;;;;17.59;40.61;98773.78;5072089;28;20489;-70
2022/11/23 12:32:01;;;;;;;1.13;0.45;;;;;;;16.96;38.20;98769.88;5019648;28;20036;-70
2022/11/23 12:34:33;;;;;;;2.65;0.80;;;;;;;16.89;38.70;98766.56;5071878;28;20075;-70
2022/11/23 12:37:11;;;;;;;1.30;0.70;;;;;;;17.21;38.97;98757.75;5071846;28;20033;-70
2022/11/23 12:39:54;;;;;;;;;;;;;;;17.06;38.61;98761.91;5072380;28;20025;-70
2022/11/23 12:42:26;;;;;;;2.67;0.70;;;;;;;17.25;40.28;98751.63;5071679;28;19943;-69
2022/11/23 12:44:57;;;;;;;2.47;0.77;;;;;;;17.42;41.39;98750.75;5071899;28;20048;-69
2022/11/23 12:47:41;;;;;;;2.92;0.68;;;;;;;17.08;41.61;98749.03;5071772;28;20040;-70
2022/11/23 12:50:25;;;;;;;2.33;0.80;;;;;;;16.75;42.83;98751.84;5071616;28;20166;-70
2022/11/23 12:53:11;;;;;;;2.58;1.10;;;;;;;16.91;41.80;98753.66;5071851;28;20063;-69
2022/11/23 12:56:13;;;;;;;4.80;0.93;;;;;;;16.25;43.14;98758.94;5071628;28;20535;-69
2022/11/23 12:58:41;;;;;;;2.45;0.73;;;;;;;16.38;44.26;98752.41;5065589;28;20355;-69
2022/11/23 13:01:25;;;;;;;6.00;1.23;;;;;;;15.89;44.41;98748.66;5071307;28;20110;-70
2022/11/23 13:04:03;;;;;;;2.40;0.95;;;;;;;15.54;44.72;98748.84;5071671;28;20044;-70
2022/11/23 13:06:43;;;;;;;;;;;;;;;15.79;44.30;98735.91;5072080;28;20044;-69
2022/11/23 13:09:26;;;;;;;4.93;1.00;;;;;;;15.16;44.84;98732.34;5071673;28;19912;-70
2022/11/23 13:12:15;;;;;;;0.90;0.50;;;;;;;14.71;43.12;98737.59;5071419;28;20040;-70
2022/11/23 13:14:55;;;;;;;1.58;0.75;;;;;;;14.96;44.87;98720.41;5066224;28;20090;-69
2022/11/23 13:17:33;;;;;;;1.55;0.47;;;;;;;14.94;45.14;98726.03;5051542;28;20481;-71
2022/11/23 13:20:28;;;;;;;2.90;1.00;;;;;;;14.48;44.65;98718.91;5054257;28;20041;-71
2022/11/23 13:22:56;;;;;;;0.77;0.30;;;;;;;14.68;44.23;98703.25;5051432;28;20033;-71
2022/11/23 13:25:26;;;;;;;0.90;0.60;;;;;;;14.61;44.30;98711.44;5051369;28;20037;-70
2022/11/23 13:27:52;;;;;;;0.52;0.52;;;;;;;14.57;44.31;98707.56;5051380;28;20060;-69
2022/11/23 13:30:23;;;;;;;4.15;0.98;;;;;;;14.45;44.37;98709.44;5050925;28;20033;-70
2022/11/23 13:32:54;;;;;;;3.15;0.82;;;;;;;13.86;45.47;98705.97;5033349;28;20094;-69
2022/11/23 13:35:20;;;;;;;1.88;0.80;;;;;;;14.00;45.62;98706.53;5051077;28;20033;-70
2022/11/23 13:37:59;;;;;;;1.48;0.47;;;;;;;13.75;45.68;98699.53;5051403;28;20413;-70
2022/11/23 13:40:29;;;;;;;1.05;0.50;;;;;;;13.67;45.73;98693.72;5051133;28;20074;-69
2022/11/23 13:43:26;;;;;;;3.83;0.68;;;;;;;13.94;46.46;98691.41;5053013;28;20048;-69
2022/11/23 13:46:27;;;;;;;1.85;0.70;;;;;;;14.17;46.66;98687.94;5048895;28;20045;-70
2022/11/23 13:48:58;;;;;;;0.75;0.50;;;;;;;13.98;45.48;98688.03;5055147;28;20029;-70
2022/11/23 13:51:28;;;;;;;1.67;0.70;;;;;;;13.93;45.68;98681.75;5054830;28;20135;-68
2022/11/23 13:54:17;;;;;;;3.58;1.50;;;;;;;13.66;46.58;98684.88;5055105;28;20421;-70
2022/11/23 13:56:44;;;;;;;1.92;0.73;;;;;;;13.43;47.14;98674.13;5055069;28;20047;-69
2022/11/23 13:59:26;;;;;;;3.00;1.15;;;;;;;13.61;48.30;98671.38;5055139;28;20036;-69
2022/11/23 14:02:07;;;;;;;1.27;0.60;;;;;;;13.51;46.66;98665.78;5054781;28;20064;-69
2022/11/23 14:04:36;;;;;;;1.15;0.50;;;;;;;13.69;47.40;98663.03;5054965;28;20174;-69
2022/11/23 14:07:07;;;;;;;2.08;0.73;;;;;;;13.39;46.57;98657.75;5054844;28;20047;-69
2022/11/23 14:09:38;;;;;;;3.95;0.68;;;;;;;13.16;47.64;98653.09;5054861;28;20041;-69
2022/11/23 14:12:10;;;;;;;1.17;0.77;;;;;;;13.02;47.69;98657.84;5054459;28;20538;-69
2022/11/23 14:14:42;;;;;;;0.80;0.60;;;;;;;12.98;48.24;98650.50;5054996;28;20406;-69
2022/11/23 14:17:36;;;;;;;1.65;0.75;;;;;;;12.84;48.91;98651.72;5054945;28;20048;-69
2022/11/23 14:20:04;;;;;;;0.40;0.35;;;;;;;12.69;49.86;98649.44;5036847;28;20571;-69
2022/11/23 14:22:40;;;;;;;0.82;0.52;;;;;;;12.36;50.88;98636.50;5054722;28;20296;-70
2022/11/23 14:25:15;;;;;;;1.65;0.63;;;;;;;12.34;51.44;98633.25;5054459;28;20041;-69
2022/11/23 14:27:55;;;;;;;0.43;0.40;;;;;;;12.12;52.17;98636.34;5054573;28;20082;-68
2022/11/23 14:30:21;;;;;;;1.23;0.98;;;;;;;12.01;52.73;98633.63;5054122;28;20086;-69
2022/11/23 14:33:19;;;;;;;1.10;0.43;;;;;;;11.86;53.65;98632.09;5054135;28;20037;-68
2022/11/23 14:36:03;;;;;;;1.88;0.98;;;;;;;11.75;53.96;98634.66;5054156;28;20513;-69
2022/11/23 14:39:08;;;;;;;1.27;0.50;;;;;;;11.57;54.47;98628.25;5054259;28;20071;-69
2022/11/23 14:41:35;;;;;;;1.15;0.60;;;;;;;11.39;54.88;98630.84;5036652;28;20076;-68
2022/11/23 14:44:02;;;;;;;0.98;0.50;;;;;;;11.21;55.80;98630.78;5054386;28;20029;-69
2022/11/23 14:46:27;;;;;;;2.17;0.70;;;;;;;11.11;55.63;98629.44;5053995;28;20068;-68
2022/11/23 14:49:06;;;;;;;0.63;0.60;;;;;;;11.09;56.09;98628.03;5054009;28;20061;-69
2022/11/23 14:51:33;;;;;;;1.08;0.43;;;;;;;11.02;56.94;98619.22;5053734;28;20054;-69
2022/11/23 14:54:01;;;;;;;2.15;0.80;;;;;;;10.98;56.87;98634.84;5053507;28;20024;-69
2022/11/23 14:56:35;;;;;;;1.85;0.90;;;;;;;10.86;57.73;98636.56;5035990;28;20098;-69
2022/11/23 14:59:05;;;;;;;0.75;0.50;;;;;;;10.86;58.32;98625.91;5053962;28;20103;-69
2022/11/23 15:01:31;;;;;;;1.10;0.60;;;;;;;10.82;58.90;98632.69;5053675;28;20033;-69
2022/11/23 15:04:06;;;;;;;0.77;0.70;;;;;;;10.75;59.09;98634.56;5053854;28;20553;-69
2022/11/23 15:06:38;;;;;;;0.80;0.80;;;;;;;10.68;59.59;98636.44;5053847;28;20533;-69
2022/11/23 15:09:30;;;;;;;0.50;0.50;;;;;;;10.68;59.91;98633.78;5053991;28;20482;-69
2022/11/23 15:12:17;;;;;;;3.60;0.60;;;;;;;10.56;60.37;98642.47;5053712;28;20033;-69
2022/11/23 15:14:42;;;;;;;2.03;0.57;;;;;;;10.55;60.56;98650.63;5053655;28;20041;-68
2022/11/23 15:17:16;;;;;;;2.00;0.90;;;;;;;10.55;61.93;98650.63;5053534;28;20065;-69
2022/11/23 15:19:42;;;;;;;2.58;0.95;;;;;;;10.52;61.51;98641.25;5053642;28;20171;-69
2022/11/23 15:22:16;;;;;;;0.52;0.52;;;;;;;10.49;61.44;98646.97;5053720;28;20480;-69
2022/11/23 15:24:42;;;;;;;0.82;0.60;;;;;;;10.41;61.82;98646.41;5053430;28;20515;-69
2022/11/23 15:27:15;;;;;;;1.00;0.68;;;;;;;10.33;62.46;98652.78;5053746;28;20320;-69
2022/11/23 15:29:50;;;;;;;1.10;0.65;;;;;;;10.31;62.50;98665.50;5053454;28;20478;-69
2022/11/23 15:32:22;;;;;;;0.85;0.55;;;;;;;10.22;62.79;98664.03;5053154;28;20032;-69
2022/11/23 15:34:48;;;;;;;1.67;0.80;;;;;;;10.20;63.44;98669.56;5053232;28;20082;-69
2022/11/23 15:37:15;;;;;;;1.83;0.70;;;;;;;10.16;63.08;98668.34;5053008;28;20040;-69
2022/11/23 15:39:41;;;;;;;1.15;0.80;;;;;;;10.21;63.38;98676.53;5053166;28;20037;-69
2022/11/23 15:42:14;;;;;;;1.10;0.47;;;;;;;10.19;63.02;98680.44;5052941;28;20098;-69
2022/11/23 15:44:40;;;;;;;1.77;0.73;;;;;;;10.21;64.02;98681.03;5053267;28;20037;-68
2022/11/23 15:47:06;;;;;;;0.98;0.70;;;;;;;10.14;62.68;98680.22;5053001;28;20033;-68
2022/11/23 15:49:37;;;;;;;1.73;0.77;;;;;;;10.18;62.90;98689.44;5053120;28;20401;-69
2022/11/23 15:52:03;;;;;;;0.65;0.60;;;;;;;10.17;62.66;98687.78;5052972;28;20438;-69
2022/11/23 15:54:36;;;;;;;2.47;0.57;;;;;;;10.23;62.19;98693.13;5052897;28;20094;-69
2022/11/23 15:57:05;;;;;;;1.83;0.85;;;;;;;10.22;62.44;98696.78;5052946;28;20052;-69
2022/11/23 15:59:39;;;;;;;1.75;0.88;;;;;;;10.30;63.34;98701.94;5052882;28;20032;-69
2022/11/23 16:02:14;;;;;;;1.10;0.65;;;;;;;10.28;62.86;98713.78;5052588;28;20048;-69
2022/11/23 16:04:42;;;;;;;0.60;0.50;;;;;;;10.31;62.83;98722.19;5052352;28;20509;-69
2022/11/23 16:07:21;;;;;;;1.75;0.80;;;;;;;10.27;62.89;98731.63;5052360;28;20037;-69
2022/11/23 16:10:16;;;;;;;2.20;1.15;;;;;;;10.25;63.00;98735.53;5052686;28;20029;-69
2022/11/23 16:12:52;;;;;;;0.88;0.75;;;;;;;10.25;64.11;98738.19;5052446;28;20083;-69
2022/11/23 16:15:36;;;;;;;1.25;1.00;;;;;;;10.23;65.07;98754.34;5052558;28;20043;-69
2022/11/23 16:18:17;;;;;;;1.27;1.10;;;;;;;10.20;67.73;98762.72;5052482;28;20597;-69
2022/11/23 16:20:49;;;;;;;1.95;0.88;;;;;;;10.20;70.24;98759.22;5052381;28;20132;-65
2022/11/23 16:23:22;;;;;;;1.20;1.10;;;;;;;10.13;73.01;98774.38;5052386;28;20039;-65
2022/11/23 16:25:58;;;;;;;1.73;1.13;;;;;;;10.01;74.50;98768.88;5052142;28;20053;-65
2022/11/23 16:28:48;;;;;;;2.63;1.10;;;;;;;9.87;79.76;98784.00;5052271;28;20043;-65
2022/11/23 16:31:28;;;;;;;3.55;1.23;;;;;;;9.58;82.94;98792.34;5041811;28;20048;-65
2022/11/23 16:33:55;;;;;;;2.25;1.17;;;;;;;9.35;90.78;98798.84;5052246;28;20040;-66
2022/11/23 16:36:20;;;;;;;2.75;0.73;;;;;;;9.14;92.57;98804.31;5052037;28;20037;-65
2022/11/23 16:38:46;;;;;;;1.67;0.63;;;;;;;9.08;95.84;98800.59;5052054;28;20090;-65
2022/11/23 16:41:11;;;;;;;2.78;1.20;;;;;;;8.90;96.43;98806.44;5051770;28;20071;-65
2022/11/23 16:43:36;;;;;;;0.65;0.65;;;;;;;8.80;100.00;98808.66;5052003;28;20033;-66
2022/11/23 16:46:02;;;;;;;1.35;0.80;;;;;;;8.77;99.53;98805.56;5052043;28;20048;-64
2022/11/23 16:48:27;;;;;;;1.30;0.80;;;;;;;8.70;98.99;98809.00;5052057;28;20509;-65
2022/11/23 16:50:54;;;;;;;1.00;0.90;;;;;;;8.69;100.00;98811.84;5051463;28;20041;-65
2022/11/23 16:53:21;;;;;;;2.45;0.88;;;;;;;8.65;100.00;98806.09;5052184;28;20041;-65
2022/11/23 16:55:51;;;;;;;3.33;1.33;;;;;;;8.58;100.00;98810.56;5052110;28;20119;-66
2022/11/23 16:58:16;;;;;;;1.63;1.27;;;;;;;8.61;100.00;98823.44;5052543;28;20044;-66
2022/11/23 17:00:42;;;;;;;3.33;1.20;;;;;;;8.55;100.00;98820.75;5051465;28;20040;-66
2022/11/23 17:03:15;;;;;;;3.08;1.10;;;;;;;8.47;100.00;98826.19;5051795;28;20038;-66
2022/11/23 17:05:41;;;;;;;3.30;1.20;;;;;;;8.41;100.00;98833.94;5051652;28;20036;-65
2022/11/23 17:08:06;;;;;;;2.88;1.40;;;;;;;8.39;100.00;98835.94;5051819;28;20502;-66
2022/11/23 17:10:32;;;;;;;3.05;1.55;;;;;;;8.33;100.00;98836.69;5051264;28;20405;-65
2022/11/23 17:12:58;;;;;;;3.03;1.35;;;;;;;8.39;100.00;98843.91;5051612;28;20405;-66
2022/11/23 17:15:24;;;;;;;3.83;1.67;;;;;;;8.32;100.00;98844.84;5051418;28;20051;-66
2022/11/23 17:17:49;;;;;;;2.78;1.20;;;;;;;8.28;100.00;98852.38;5051453;28;20041;-65
2022/11/23 17:20:16;;;;;;;1.85;1.02;;;;;;;8.28;100.00;98849.72;5051321;28;20048;-65